Monday, September 24, 2018, 5:21 PM EDT
Back to Local

KDOV, Dover Air Force Base

Location: Dover, DE, United States Lat: 39.133
Local Time: 5:21 PM EDT (21:21 GMT) Lon: -75.467
Time Zone: US/Eastern Elev: 29 ft

Show me the last for .
Show Coded

Time T Td Feel RH Dir Speed Gust Alt SLP Vis Weather Sky Remarks
2018-09-24 13:50 66 59 - 77 70° 18 24 30.36 30.37 10 -DZ OVC026 None
2018-09-24 12:56 67 60 - 78 70° 18 25 30.37 30.38 10 BKN023 OVC040 None
2018-09-24 11:56 67 61 - 81 70° 17 23 30.37 30.38 10 SCT022 OVC041 1-hr Precip Total: Trace
2018-09-24 11:55 66 61 - 82 60° 18 23 30.37 30.38 10 SCT022 BKN041 None
2018-09-24 10:56 66 59 - 78 70° 20 24 30.37 30.38 10 BKN024 OVC034 None
2018-09-24 10:28 66 61 - 82 70° 20 25 30.37 30.38 10 BKN021 OVC027 None
2018-09-24 10:12 66 63 - 88 60° 16 24 30.37 30.38 10 BKN017 OVC025 None
2018-09-24 10:00 66 63 - 88 60° 13 - 30.36 30.37 10 SCT015 BKN022 OVC028 None
2018-09-24 09:28 66 63 - 88 60° 13 - 30.36 30.37 10 BKN018 BKN027 OVC042 None
2018-09-24 09:12 66 63 - 88 50° 13 - 30.36 30.37 10 FEW017 BKN023 BKN028 OVC043 None
2018-09-24 09:08 66 63 - 88 60° 13 - 30.36 30.37 10 FEW017 SCT023 OVC043 None
2018-09-24 08:56 65 61 - 88 50° 14 - 30.35 30.36 10 BKN021 BKN025 OVC043 None
2018-09-24 08:16 64 63 - 93 60° 14 - 30.34 30.35 10 FEW013 SCT018 BKN036 OVC043 Pressure falling rapidly
2018-09-24 08:04 64 63 - 93 50° 15 - 30.37 - 10 SCT013 BKN027 OVC037 None
2018-09-24 04:56 63 62 - 95 60° 14 - 30.31 - 2 -RA BR BKN008 OVC014 1-hr Precip Total: 0.10"
2018-09-24 03:56 63 62 - 95 50° 13 - 30.29 - 2 -RA BR SCT007 SCT013 OVC024 Variable visibility
1-hr Precip Total: 0.12"
2018-09-24 02:56 63 62 - 95 40° 13 - 30.27 - 2 -RA BR BKN007 BKN013 OVC026 Variable visibility
1-hr Precip Total: 0.09"
2018-09-24 01:56 63 62 - 95 50° 13 - 30.29 - 2 -RA BR BKN007 OVC021 1-hr Precip Total: 0.10"
6-hr Precip Total (2am): 0.78"
6-hr Min Temp (2am): 63.0°F
6-hr Max Temp (2am): 63.9°F
2018-09-24 00:56 64 63 - 96 40° 13 - 30.28 - 4 -RA BR BKN007 OVC012 1-hr Precip Total: 0.30"
24-hr Min Temp (1am): 62.2°F
24-hr Max Temp (1am): 66.6°F
2018-09-23 22:56 64 63 - 96 10° 9 - 30.23 - 3 +RA BR FEW008 OVC023 1-hr Precip Total: 0.07"
6-hr Precip Total (11pm): 0.13"
2018-09-23 22:00 64 63 - 93 30° 10 - 30.22 - 9 -RA BKN006 OVC020 None
2018-09-23 21:48 63 63 - 100 20° 12 - 30.21 - 6 -RA BR BKN006 OVC010 None
2018-09-23 21:24 63 63 - 100 20° 10 - 30.22 - 3 RA BR OVC007 None
2018-09-23 21:00 63 63 - 100 10° 10 - 30.21 - 10 -RA OVC005 None
2018-09-23 20:56 63 62 - 95 360° 10 - 30.21 - 10 OVC005 None
2018-09-23 20:32 64 63 - 93 10° 9 - 30.20 - 10 BKN006 OVC037 None
2018-09-23 20:24 64 63 - 93 360° 10 - 30.20 - 10 SCT007 BKN028 OVC037 None
2018-09-23 20:16 63 61 - 93 340° 7 - 30.20 - 10 FEW007 SCT023 SCT028 OVC037 None
2018-09-23 20:12 63 61 - 93 350° 7 - 30.20 - 10 SCT022 SCT028 OVC035 None
2018-09-23 19:56 63 61 - 93 30° 6 - 30.21 30.22 10 SCT016 OVC023 1-hr Precip Total: Trace
6-hr Precip Total (8pm): 0.63"
6-hr Min Temp (8pm): 62.2°F
6-hr Max Temp (8pm): 63.9°F
2018-09-23 19:45 63 61 - 93 70° 6 - 30.21 30.22 10 FEW007 SCT014 OVC021 None
2018-09-23 19:33 63 63 - 100 80° 7 - 30.21 30.22 10 FEW009 BKN014 OVC019 None
2018-09-23 19:25 64 63 - 93 90° 8 - 30.21 30.22 10 SCT010 BKN014 BKN020 None
2018-09-23 19:17 64 63 - 93 90° 7 - 30.21 30.22 10 SCT010 BKN014 OVC020 None
2018-09-23 19:13 64 63 - 93 80° 8 - 30.21 30.22 10 SCT010 SCT014 OVC020 None
2018-09-23 19:02 63 63 - 100 80° 7 - 30.21 30.22 10 -RA FEW010 BKN021 None
2018-09-23 18:56 63 62 - 95 80° 7 - 30.21 30.22 9 FEW008 OVC021 1-hr Precip Total: 0.04"
2018-09-23 18:51 63 63 - 100 80° 8 - 30.21 30.22 7 FEW006 FEW010 OVC021 None
2018-09-23 18:44 63 63 - 100 80° 9 - 30.20 30.21 4 -DZ SCT008 OVC021 None
2018-09-23 18:40 63 63 - 100 80° 10 - 30.20 30.21 3 -RA BKN008 BKN021 OVC031 None
2018-09-23 18:36 64 63 - 93 70° 12 - 30.20 30.21 2 -RA BKN006 BKN010 OVC020 Variable visibility
2018-09-23 18:32 64 63 - 93 80° 8 - 30.20 30.21 2 -RA BKN006 OVC014 None
2018-09-23 18:20 64 63 - 93 50° 5 - 30.20 30.21 1 RA BKN007 BKN014 Variable visibility
2018-09-23 18:12 64 63 - 93 50° 5 - 30.20 30.21 2 -RA BKN007 Variable visibility
2018-09-23 18:04 63 63 - 100 50° 6 - 30.20 30.21 5 -DZ FEW008 None
2018-09-23 17:56 63 62 - 95 50° 5 - 30.20 30.21 6 -DZ FEW020 SCT028 1-hr Precip Total: 0.05"
2018-09-23 17:45 63 63 - 100 50° 6 - 30.20 30.21 5 -RA FEW024 BKN031 None
2018-09-23 17:25 63 63 - 100 50° 6 - 30.19 30.20 3 -RA FEW009 SCT015 OVC027 None

Support USWX by starting your Amazon purchase here.